• Join FlightAware (Why Join?)
  • Login
  • US Flag 
02:48PM EDT


 

Airport Tracker/Info


-or-


 

Live Flight TrackerFlight Track Log ✈ SWA2051 ✈ 25-Apr-2013 ✈ KBNA - KBWI

Flight Track Log - Related Links

Times and Time Zones

All times are in EDT time to prevent confusion due to time zone crossing. See the SWA2051 flight status page for this flight to view local times or setup timezone preferences in your user account.

Time Position Orientation Groundspeed Altitude Reporting Facility
EDT Latitude Longitude Course Direction KTS MPH feet Rate Location/Type
07:36AM 36.1500 -86.7000 270° West 158 182 1,200  Level Nashville TRACON
07:36AM 36.1500 -86.7500 270° West 198 228 2,900 2,100 Climbing Nashville TRACON
07:37AM 36.1833 -86.7833 321° Northwest 213 245 5,300 2,100 Climbing Nashville TRACON
07:39AM 36.2031 -86.6431 80° East 297 342 8,500 2,280 Climbing Memphis Center
07:40AM 36.2017 -86.5350 91° East 309 356 11,400 2,760 Climbing Memphis Center
07:41AM 36.2022 -86.4114 90° East 344 396 14,100 2,340 Climbing Memphis Center
07:42AM 36.1994 -86.2625 91° East 375 432 16,100 2,160 Climbing Memphis Center
07:43AM 36.1986 -86.1158 90° East 405 466 18,500 2,100 Climbing Memphis Center
07:44AM 36.2397 -85.9775 70° East 418 481 20,400 1,980 Climbing Memphis Center
07:46AM 36.3511 -85.7350 60° Northeast 456 525 24,400 1,920 Climbing Indianapolis Center
07:47AM 36.4189 -85.5944 59° Northeast 469 540 26,100 1,560 Climbing Indianapolis Center
07:48AM 36.4889 -85.4467 59° Northeast 490 564 27,700 1,620 Climbing Indianapolis Center
07:49AM 36.5753 -85.2639 59° Northeast 505 581 29,500 1,560 Climbing Indianapolis Center
07:50AM 36.6381 -85.1028 64° Northeast 512 589 31,000 1,260 Climbing Indianapolis Center
07:51AM 36.6911 -84.9289 69° East 527 606 32,200 1,320 Climbing Indianapolis Center
07:52AM 36.7447 -84.7531 69° East 535 616 33,800 1,320 Climbing Indianapolis Center
07:53AM 36.7969 -84.5800 69° East 534 615 35,000 540 Climbing Indianapolis Center
07:54AM 36.8500 -84.4033 69° East 544 626 35,000 240 Level Indianapolis Center
07:55AM 36.9047 -84.2211 69° East 557 641 35,600 480 Climbing Indianapolis Center
07:56AM 36.9581 -84.0436 69° East 547 629 36,000 180 Climbing Indianapolis Center
07:57AM 37.0189 -83.8358 70° East 543 625 36,000  Level Indianapolis Center
07:58AM 37.0739 -83.6581 69° East 546 628 36,000 480 Level Indianapolis Center
07:59AM 37.1258 -83.4786 70° East 546 628 37,000 480 Climbing Indianapolis Center
08:00AM 37.1769 -83.3000 70° East 542 624 37,000  Level Indianapolis Center
08:01AM 37.2275 -83.1214 70° East 538 619 37,000  Level Indianapolis Center
08:02AM 37.2800 -82.9419 70° East 539 620 37,000  Level Indianapolis Center
08:03AM 37.3314 -82.7633 70° East 538 619 37,000  Level Indianapolis Center
08:04AM 37.3817 -82.5842 71° East 538 619 37,000  Level Indianapolis Center
08:05AM 37.4314 -82.4053 71° East 538 619 37,000  Level Indianapolis Center
08:06AM 37.4819 -82.2272 70° East 538 619 37,000  Level Indianapolis Center
08:08AM 37.5389 -82.0183 71° East 538 619 37,000  Level Indianapolis Center
08:09AM 37.5886 -81.8406 71° East 539 620 37,000  Level Indianapolis Center
08:10AM 37.6375 -81.6603 71° East 541 623 37,000  Level Indianapolis Center
08:11AM 37.6856 -81.4844 71° East 539 620 37,000  Level Indianapolis Center
08:12AM 37.7325 -81.3086 71° East 541 623 37,000  Level Indianapolis Center
08:12AM 37.7583 -81.2000 73° East 528 608 37,000  Level Washington Center
08:13AM 37.7892 -81.0317 77° East 538 619 37,000  Level Washington Center
08:14AM 37.8122 -80.8439 81° East 543 625 37,000  Level Washington Center
08:15AM 37.8347 -80.6586 81° East 543 625 37,000  Level Washington Center
08:16AM 37.8553 -80.4656 82° East 538 619 37,000  Level Washington Center
08:17AM 37.9042 -80.2869 71° East 538 619 37,000  Level Washington Center
08:18AM 37.9822 -80.1022 62° Northeast 536 617 37,000  Level Washington Center
08:19AM 38.0489 -79.9294 64° Northeast 536 617 37,000  Level Washington Center
08:20AM 38.1133 -79.7592 64° Northeast 536 617 37,000  Level Washington Center
08:21AM 38.1797 -79.5858 64° Northeast 536 617 37,000 -120 Level Washington Center
08:22AM 38.2458 -79.4147 64° Northeast 542 624 36,800 -1,740 Descending Washington Center
08:23AM 38.2994 -79.2322 69° East 542 624 33,600 60 Descending Washington Center
08:24AM 38.3419 -79.0622 72° East 547 629 37,000 -3,300 Climbing Washington Center
08:25AM 38.3958 -78.8528 72° East 559 643 27,000 -5,100 Descending Washington Center
08:26AM 38.4403 -78.6692 73° East 559 643 27,000  Level Washington Center
08:27AM 38.4889 -78.4831 71° East 552 635 27,000 -300 Level Washington Center
08:28AM 38.5256 -78.3358 72° East 552 635 26,500 -2,040 Descending Washington Center
08:29AM 38.5783 -78.1172 73° East 546 628 22,900 -3,180 Descending Washington Center
08:30AM 38.6214 -77.9433 72° East 535 616 20,200 -1,980 Descending Washington Center
08:31AM 38.6475 -77.7794 78° East 496 571 19,000 -600 Descending Washington Center
08:32AM 38.6564 -77.6281 86° East 455 524 19,000 -300 Level Washington Center
08:33AM 38.6667 -77.5500 80° East 424 488 18,600 -1,740 Descending Potomac TRACON
08:33AM 38.6667 -77.4167 90° East 422 486 16,700 -1,500 Descending Potomac TRACON
08:34AM 38.6833 -77.3000 80° East 404 465 15,900 -1,440 Descending Potomac TRACON
08:35AM 38.6833 -77.1500 90° East 399 459 14,000 -2,040 Descending Potomac TRACON
08:36AM 38.6833 -77.0167 90° East 396 456 12,100 -1,980 Descending Potomac TRACON
08:37AM 38.7000 -76.8833 81° East 385 443 10,300 -1,200 Descending Potomac TRACON
08:38AM 38.7008 -76.7967 89° East 376 433 9,900 -1,080 Descending Washington Center
08:39AM 38.7250 -76.6933 73° East 349 402 8,400 -1,500 Descending Washington Center
08:40AM 38.7833 -76.5833 56° Northeast 291 335 6,800 -1,200 Descending Potomac TRACON
08:41AM 38.8167 -76.5000 63° Northeast 284 327 6,000 -900 Descending Potomac TRACON
08:42AM 38.8833 -76.4833 11° North 258 297 5,100 -1,080 Descending Potomac TRACON
08:43AM 38.9500 -76.5000 349° North 241 277 4,000 -1,020 Descending Potomac TRACON
08:44AM 39.0167 -76.5167 349° North 247 284 3,100 -600 Descending Potomac TRACON
08:45AM 39.0667 -76.5667 322° Northwest 208 239 2,900 -600 Descending Potomac TRACON
08:46AM 39.1000 -76.6000 322° Northwest 185 213 2,000 -1,020 Descending Potomac TRACON
08:47AM 39.1333 -76.6333 322° Northwest 131 151 900 -1,020 Descending Potomac TRACON
08:49AM 39.1667 -76.6667 339° North  Level FlightAware Approximate
08:56AM 39.1754 -76.6683 339° North  Level Estimated
08:57AM 39.1754 -76.6683 339° North  Level Estimated
08:58AM 39.1754 -76.6683 339° North  Level Estimated
08:59AM 39.1754 -76.6683 339° North  Level Estimated